Time;durP1;ratioP1;P1;durP2;ratioP2;P2;SDS_P1;SDS_P2;PMS_P1;PMS_P2;Temp;Humidity;BMP_temperature;BMP_pressure;BME280_temperature;BME280_humidity;BME280_pressure;Samples;Min_cycle;Max_cycle;Signal;HPM_P1;HPM_P2
2022/03/19 00:01:46;;;;;;;13.93;3.90;;;6.50;99.90;;;;;;5073952;28;20055;-70
2022/03/19 00:04:11;;;;;;;13.07;3.47;;;6.50;99.90;;;;;;5073246;28;20042;-70
2022/03/19 00:06:39;;;;;;;21.30;3.75;;;6.40;99.90;;;;;;5073593;28;20062;-70
2022/03/19 00:09:07;;;;;;;12.20;3.75;;;6.40;99.90;;;;;;5073474;28;20141;-70
2022/03/19 00:11:34;;;;;;;17.05;4.00;;;6.40;99.90;;;;;;5072376;28;20045;-70
2022/03/19 00:13:59;;;;;;;14.77;3.53;;;6.30;99.90;;;;;;5072013;28;20037;-70
2022/03/19 00:16:25;;;;;;;19.38;3.85;;;6.40;99.90;;;;;;5070973;28;20055;-70
2022/03/19 00:18:51;;;;;;;14.75;3.70;;;6.30;99.90;;;;;;5072009;28;20518;-70
2022/03/19 00:21:17;;;;;;;20.63;3.65;;;6.30;99.90;;;;;;5072053;28;20527;-70
2022/03/19 00:23:43;;;;;;;14.65;4.85;;;6.30;99.90;;;;;;5071637;28;20447;-70
2022/03/19 00:26:09;;;;;;;14.02;4.15;;;6.20;99.90;;;;;;5070872;28;20488;-70
2022/03/19 00:28:40;;;;;;;16.60;4.57;;;6.20;99.90;;;;;;5072176;28;20512;-70
2022/03/19 00:31:06;;;;;;;19.23;4.45;;;6.10;99.90;;;;;;5071807;28;20036;-70
2022/03/19 00:33:31;;;;;;;17.58;3.83;;;6.00;99.90;;;;;;5070791;28;20399;-70
2022/03/19 00:35:57;;;;;;;16.42;3.80;;;6.10;99.90;;;;;;5071985;28;20074;-70
2022/03/19 00:38:22;;;;;;;18.95;4.82;;;6.10;99.90;;;;;;5088556;28;20024;-69
2022/03/19 00:40:51;;;;;;;20.90;4.65;;;6.10;99.90;;;;;;5096032;28;20041;-70
2022/03/19 00:43:19;;;;;;;12.52;3.38;;;6.10;99.90;;;;;;5095904;28;20092;-69
2022/03/19 00:45:47;;;;;;;17.55;4.10;;;6.00;99.90;;;;;;5088187;28;20194;-70
2022/03/19 00:48:13;;;;;;;20.58;4.00;;;6.00;99.90;;;;;;5071947;28;20045;-70
2022/03/19 00:50:39;;;;;;;19.15;4.00;;;5.90;99.90;;;;;;5071698;28;20066;-70
2022/03/19 00:53:04;;;;;;;18.65;4.07;;;5.90;99.90;;;;;;5072107;28;20032;-70
2022/03/19 00:55:30;;;;;;;15.18;3.72;;;5.90;99.90;;;;;;5071980;28;20046;-69
2022/03/19 00:57:55;;;;;;;11.20;3.40;;;5.80;99.90;;;;;;5071183;28;20044;-70
2022/03/19 01:00:26;;;;;;;14.70;4.32;;;5.80;99.90;;;;;;5071355;28;20051;-70
2022/03/19 01:02:54;;;;;;;15.80;3.60;;;5.80;99.90;;;;;;5070591;28;20036;-70
2022/03/19 01:05:20;;;;;;;15.90;3.78;;;5.80;99.90;;;;;;5069760;28;20048;-70
2022/03/19 01:07:47;;;;;;;17.60;3.78;;;5.80;99.90;;;;;;5070122;28;20448;-70
2022/03/19 01:10:15;;;;;;;11.02;3.13;;;5.70;99.90;;;;;;5070978;28;20050;-70
2022/03/19 01:12:42;;;;;;;13.43;3.72;;;5.70;99.90;;;;;;5069425;28;20132;-70
2022/03/19 01:15:09;;;;;;;16.85;3.92;;;5.70;99.90;;;;;;5071154;28;20047;-70
2022/03/19 01:17:35;;;;;;;22.92;4.00;;;5.70;99.90;;;;;;5071139;28;20119;-70
2022/03/19 01:20:02;;;;;;;13.85;3.47;;;5.70;99.90;;;;;;5071022;28;20036;-70
2022/03/19 01:22:28;;;;;;;17.02;3.58;;;5.60;99.90;;;;;;5069104;28;20040;-70
2022/03/19 01:24:55;;;;;;;14.40;4.05;;;5.60;99.90;;;;;;5070934;28;20036;-69
2022/03/19 01:27:21;;;;;;;16.50;3.75;;;5.60;99.90;;;;;;5070984;28;20036;-69
2022/03/19 01:29:47;;;;;;;20.20;4.28;;;5.60;99.90;;;;;;5069282;28;20098;-71
2022/03/19 01:32:12;;;;;;;12.02;3.17;;;5.60;99.90;;;;;;5068700;28;20307;-71
2022/03/19 01:34:38;;;;;;;16.27;4.75;;;5.60;99.90;;;;;;5071113;28;20089;-69
2022/03/19 01:37:04;;;;;;;16.45;3.53;;;5.50;99.90;;;;;;5070980;28;20052;-69
2022/03/19 01:39:30;;;;;;;16.88;4.90;;;5.50;99.90;;;;;;5070837;28;20052;-69
2022/03/19 01:41:56;;;;;;;14.35;4.43;;;5.50;99.90;;;;;;5069802;28;20079;-70
2022/03/19 01:44:22;;;;;;;16.90;4.47;;;5.50;99.90;;;;;;5069052;28;20076;-69
2022/03/19 01:47:03;;;;;;;11.90;3.72;;;5.50;99.90;;;;;;5070828;28;20044;-70
2022/03/19 01:49:30;;;;;;;12.07;4.13;;;5.50;99.90;;;;;;5076671;28;20059;-69
2022/03/19 01:51:56;;;;;;;17.77;4.05;;;5.50;99.90;;;;;;5093237;28;20074;-69
2022/03/19 01:54:32;;;;;;;20.00;4.18;;;5.40;99.90;;;;;;5079756;28;20036;-69
2022/03/19 01:56:58;;;;;;;15.43;3.72;;;5.40;99.90;;;;;;5070406;28;20048;-70
2022/03/19 01:59:27;;;;;;;11.25;3.75;;;5.40;99.90;;;;;;5070572;28;20033;-69
2022/03/19 02:01:53;;;;;;;13.65;3.83;;;5.40;99.90;;;;;;5069604;28;20051;-70
2022/03/19 02:04:19;;;;;;;11.57;3.88;;;5.40;99.90;;;;;;5069011;28;20162;-69
2022/03/19 02:06:45;;;;;;;25.25;4.25;;;5.40;99.90;;;;;;5077550;28;20036;-69
2022/03/19 02:09:11;;;;;;;17.40;4.07;;;5.40;99.90;;;;;;5094014;28;20032;-69
2022/03/19 02:11:37;;;;;;;17.42;3.80;;;5.40;99.90;;;;;;5086704;28;20032;-70
2022/03/19 02:14:03;;;;;;;11.77;3.63;;;5.30;99.90;;;;;;5071716;28;20040;-70
2022/03/19 02:16:29;;;;;;;17.23;4.00;;;5.30;99.90;;;;;;5070493;28;20397;-70
2022/03/19 02:19:01;;;;;;;11.82;3.60;;;5.40;99.90;;;;;;5068859;28;20052;-70
2022/03/19 02:21:44;;;;;;;14.38;3.90;;;5.40;99.90;;;;;;5069781;28;20119;-72
2022/03/19 02:26:55;;;;;;;14.90;3.83;;;5.40;99.90;;;;;;5069878;28;20660;-72
2022/03/19 02:29:21;;;;;;;14.23;4.22;;;5.30;99.90;;;;;;5069898;28;20357;-72
2022/03/19 02:31:50;;;;;;;12.45;4.22;;;5.30;99.90;;;;;;5068950;28;20098;-72
2022/03/19 02:34:16;;;;;;;20.75;4.28;;;5.40;99.90;;;;;;5069886;28;20550;-72
2022/03/19 02:36:42;;;;;;;13.23;4.15;;;5.30;99.90;;;;;;5068237;28;20131;-72
2022/03/19 02:39:19;;;;;;;14.48;4.00;;;5.30;99.90;;;;;;5068860;28;20416;-72
2022/03/19 02:41:47;;;;;;;15.02;4.15;;;5.30;99.90;;;;;;5067820;28;20112;-71
2022/03/19 02:44:14;;;;;;;14.82;4.00;;;5.30;99.90;;;;;;5069018;28;20072;-71
2022/03/19 02:46:42;;;;;;;12.43;3.95;;;5.30;99.90;;;;;;5069005;28;20056;-71
2022/03/19 02:49:08;;;;;;;19.58;5.07;;;5.20;99.90;;;;;;5068782;28;20051;-72
2022/03/19 02:51:35;;;;;;;21.30;4.22;;;5.20;99.90;;;;;;5069825;28;20044;-72
2022/03/19 02:54:06;;;;;;;8.50;3.78;;;5.20;99.90;;;;;;5068104;28;20052;-72
2022/03/19 02:56:37;;;;;;;13.95;3.80;;;5.20;99.90;;;;;;5069092;28;20136;-72
2022/03/19 02:59:20;;;;;;;19.35;5.30;;;5.20;99.90;;;;;;5069840;28;20201;-71
2022/03/19 03:02:12;;;;;;;16.05;3.92;;;5.20;99.90;;;;;;5075501;28;20047;-71
2022/03/19 03:04:38;;;;;;;14.15;4.43;;;5.20;99.90;;;;;;5092462;28;20041;-71
2022/03/19 03:07:04;;;;;;;19.58;4.43;;;5.10;99.90;;;;;;5071874;28;20098;-72
2022/03/19 03:09:31;;;;;;;16.58;4.03;;;5.20;99.90;;;;;;5068827;28;20072;-72
2022/03/19 03:11:59;;;;;;;13.10;4.90;;;5.20;99.90;;;;;;5067686;28;20037;-71
2022/03/19 03:14:24;;;;;;;12.18;4.13;;;5.10;99.90;;;;;;5070329;28;20052;-70
2022/03/19 03:16:52;;;;;;;16.15;4.32;;;5.10;99.90;;;;;;5051591;28;20049;-70
2022/03/19 03:19:18;;;;;;;12.68;4.20;;;5.10;99.90;;;;;;5051465;28;20052;-69
2022/03/19 03:21:45;;;;;;;13.32;4.07;;;5.10;99.90;;;;;;5071477;28;20050;-70
2022/03/19 03:24:11;;;;;;;15.35;3.80;;;5.10;99.90;;;;;;5073489;28;20116;-70
2022/03/19 03:26:38;;;;;;;18.75;5.22;;;5.10;99.90;;;;;;5071629;28;20528;-70
2022/03/19 03:29:05;;;;;;;20.85;4.97;;;5.10;99.90;;;;;;5088621;28;20048;-69
2022/03/19 03:31:30;;;;;;;15.73;4.68;;;5.10;99.90;;;;;;5096085;28;20021;-70
2022/03/19 03:33:56;;;;;;;16.42;4.68;;;5.00;99.90;;;;;;5076884;28;20050;-70
2022/03/19 03:36:22;;;;;;;16.52;4.30;;;5.00;99.90;;;;;;5071968;28;20041;-70
2022/03/19 03:38:49;;;;;;;16.60;5.07;;;5.00;99.90;;;;;;5072785;28;20051;-70
2022/03/19 03:41:15;;;;;;;14.63;4.53;;;5.00;99.90;;;;;;5072714;28;20033;-70
2022/03/19 03:43:41;;;;;;;14.00;4.60;;;5.00;99.90;;;;;;5070929;28;20050;-71
2022/03/19 03:46:06;;;;;;;14.00;4.30;;;5.00;99.90;;;;;;5071360;28;20040;-71
2022/03/19 03:48:36;;;;;;;11.52;5.18;;;5.00;99.90;;;;;;5072736;28;20063;-71
2022/03/19 03:51:03;;;;;;;13.48;3.97;;;4.90;99.90;;;;;;5071475;28;20098;-71
2022/03/19 03:53:29;;;;;;;14.70;4.28;;;5.00;99.90;;;;;;5070530;28;20041;-71
2022/03/19 03:55:55;;;;;;;12.95;4.20;;;5.00;99.90;;;;;;5072547;28;20036;-70
2022/03/19 03:58:23;;;;;;;17.42;4.55;;;4.90;99.90;;;;;;5070974;28;20036;-71
2022/03/19 04:00:50;;;;;;;14.77;4.57;;;4.90;99.90;;;;;;5072218;28;20441;-71
2022/03/19 04:03:16;;;;;;;15.27;4.40;;;4.90;99.90;;;;;;5071285;28;20086;-70
2022/03/19 04:05:42;;;;;;;12.93;4.50;;;4.80;99.90;;;;;;5072045;28;20090;-71
2022/03/19 04:08:07;;;;;;;12.77;4.88;;;4.70;99.90;;;;;;5054202;28;20032;-71
2022/03/19 04:10:33;;;;;;;13.80;4.72;;;4.70;99.90;;;;;;5072211;28;20120;-71
2022/03/19 04:12:59;;;;;;;19.75;5.10;;;4.70;99.90;;;;;;5071907;28;20037;-70
2022/03/19 04:15:25;;;;;;;17.08;4.45;;;4.70;99.90;;;;;;5091965;28;20133;-70
2022/03/19 04:17:51;;;;;;;15.10;4.80;;;4.80;99.90;;;;;;5091217;28;20048;-70
2022/03/19 04:20:17;;;;;;;17.30;4.40;;;4.80;99.90;;;;;;5072039;28;20094;-71
2022/03/19 04:22:44;;;;;;;22.00;4.80;;;4.70;99.90;;;;;;5071358;28;20071;-71
2022/03/19 04:25:21;;;;;;;14.48;4.30;;;4.70;99.90;;;;;;5053935;28;20037;-71
2022/03/19 04:27:49;;;;;;;19.42;5.18;;;4.70;99.90;;;;;;5072216;28;20128;-71
2022/03/19 04:30:16;;;;;;;13.55;4.93;;;4.70;99.90;;;;;;5070476;28;20135;-71
2022/03/19 04:32:56;;;;;;;14.50;4.20;;;4.80;99.90;;;;;;5068527;28;20047;-71
2022/03/19 04:38:10;;;;;;;14.88;4.72;;;4.60;99.90;;;;;;5071731;28;20057;-71
2022/03/19 04:40:37;;;;;;;18.13;4.50;;;4.60;99.90;;;;;;5071704;28;20047;-70
2022/03/19 04:43:03;;;;;;;19.08;5.03;;;4.60;99.90;;;;;;5069620;28;20080;-71
2022/03/19 04:45:29;;;;;;;11.40;4.32;;;4.60;99.90;;;;;;5071500;28;20033;-70
2022/03/19 04:47:56;;;;;;;11.73;4.80;;;4.60;99.90;;;;;;5072563;28;20040;-70
2022/03/19 04:50:22;;;;;;;22.27;4.75;;;4.60;99.90;;;;;;5087792;28;20040;-70
2022/03/19 04:52:49;;;;;;;13.45;4.70;;;4.60;99.90;;;;;;5091089;28;20074;-70
2022/03/19 04:55:15;;;;;;;12.60;4.43;;;4.60;99.90;;;;;;5086572;28;20080;-71
2022/03/19 04:57:41;;;;;;;18.30;4.63;;;4.60;99.90;;;;;;5072617;28;20049;-71
2022/03/19 05:00:10;;;;;;;15.43;4.65;;;4.50;99.90;;;;;;5070107;28;20082;-71
2022/03/19 05:02:35;;;;;;;11.00;4.40;;;4.60;99.90;;;;;;5070588;28;20036;-70
2022/03/19 05:05:01;;;;;;;11.93;4.38;;;4.50;99.90;;;;;;5071331;28;20378;-70
2022/03/19 05:07:28;;;;;;;7.18;4.00;;;4.60;99.90;;;;;;5069763;28;20047;-71
2022/03/19 05:12:40;;;;;;;19.83;5.25;;;4.60;99.90;;;;;;5070621;28;20048;-70
2022/03/19 05:15:10;;;;;;;19.92;5.15;;;4.60;99.90;;;;;;5069871;28;20044;-70
2022/03/19 05:17:35;;;;;;;24.88;5.18;;;4.50;99.90;;;;;;5069867;28;20048;-71
2022/03/19 05:20:01;;;;;;;12.73;4.13;;;4.50;99.90;;;;;;5069644;28;20127;-71
2022/03/19 05:22:29;;;;;;;14.55;5.18;;;4.50;99.90;;;;;;5069297;28;20052;-71
2022/03/19 05:24:56;;;;;;;19.60;4.43;;;4.50;99.90;;;;;;5069802;28;20036;-70
2022/03/19 05:27:22;;;;;;;14.23;4.68;;;4.40;99.90;;;;;;5086362;28;20025;-70
2022/03/19 05:29:48;;;;;;;14.73;4.18;;;4.40;99.90;;;;;;5089284;28;20045;-70
2022/03/19 05:32:14;;;;;;;18.60;4.55;;;4.50;99.90;;;;;;5059366;28;20124;-70
2022/03/19 05:34:40;;;;;;;13.65;5.03;;;4.40;99.90;;;;;;5061524;28;20067;-70
2022/03/19 05:37:06;;;;;;;11.95;4.43;;;4.40;99.90;;;;;;5067986;28;20036;-70
2022/03/19 05:39:33;;;;;;;8.55;3.80;;;4.40;99.90;;;;;;5068848;28;20043;-70
2022/03/19 05:41:59;;;;;;;11.98;4.85;;;4.40;99.90;;;;;;5049021;28;20040;-70
2022/03/19 05:44:25;;;;;;;20.30;4.80;;;4.40;99.90;;;;;;5070586;28;20048;-71
2022/03/19 05:46:50;;;;;;;17.00;3.85;;;4.50;99.90;;;;;;5070559;28;20044;-70
2022/03/19 05:49:16;;;;;;;17.00;5.20;;;4.40;99.90;;;;;;5069149;28;20487;-71
2022/03/19 05:51:42;;;;;;;13.65;4.88;;;4.40;99.90;;;;;;5068677;28;20535;-70
2022/03/19 05:54:09;;;;;;;14.10;4.00;;;4.40;99.90;;;;;;5070524;28;20036;-70
2022/03/19 05:56:36;;;;;;;13.65;4.80;;;4.50;99.90;;;;;;5068860;28;20690;-70
2022/03/19 05:59:03;;;;;;;18.60;4.10;;;4.50;99.90;;;;;;5070699;28;20041;-70
2022/03/19 06:01:29;;;;;;;13.95;4.32;;;4.50;99.90;;;;;;5070382;28;20044;-70
2022/03/19 06:03:59;;;;;;;11.95;3.90;;;4.50;99.90;;;;;;5068276;28;20050;-71
2022/03/19 06:06:25;;;;;;;10.85;3.95;;;4.50;99.90;;;;;;5070206;28;20161;-70
2022/03/19 06:08:51;;;;;;;15.63;3.95;;;4.50;99.90;;;;;;5070196;28;20127;-70
2022/03/19 06:11:17;;;;;;;14.85;4.97;;;4.50;99.90;;;;;;5070086;28;20041;-70
2022/03/19 06:13:43;;;;;;;12.18;3.50;;;4.50;99.90;;;;;;5068333;28;20089;-70
2022/03/19 06:16:09;;;;;;;13.65;4.40;;;4.60;99.90;;;;;;5088649;28;20067;-70
2022/03/19 06:18:35;;;;;;;13.15;4.20;;;4.60;99.90;;;;;;5093255;28;20084;-70
2022/03/19 06:21:01;;;;;;;17.13;4.75;;;4.60;99.90;;;;;;5075100;28;20121;-71
2022/03/19 06:23:26;;;;;;;18.40;5.10;;;4.60;99.90;;;;;;5069496;28;20157;-70
2022/03/19 06:25:53;;;;;;;9.95;3.95;;;4.60;99.90;;;;;;5070111;28;20506;-71
2022/03/19 06:28:19;;;;;;;11.45;4.57;;;4.70;99.90;;;;;;5070303;28;20040;-71
2022/03/19 06:30:44;;;;;;;20.85;4.38;;;4.70;99.90;;;;;;5068673;28;20089;-71
2022/03/19 06:33:12;;;;;;;18.15;4.63;;;4.80;99.90;;;;;;5069088;28;20516;-71
2022/03/19 06:38:26;;;;;;;15.98;4.70;;;4.90;99.90;;;;;;5075878;28;20099;-70
2022/03/19 06:40:52;;;;;;;16.27;4.32;;;4.90;99.90;;;;;;5093902;28;20029;-70
2022/03/19 06:43:18;;;;;;;17.25;4.78;;;5.00;99.90;;;;;;5078219;28;20090;-71
2022/03/19 06:45:44;;;;;;;11.35;4.30;;;5.10;99.90;;;;;;5070218;28;20070;-71
2022/03/19 06:48:09;;;;;;;18.00;4.80;;;5.20;99.90;;;;;;5068654;28;20041;-71
2022/03/19 06:50:35;;;;;;;16.27;3.95;;;5.20;99.90;;;;;;5070016;28;20048;-71
2022/03/19 06:53:04;;;;;;;17.45;5.10;;;5.20;99.90;;;;;;5069145;28;20063;-71
2022/03/19 06:55:31;;;;;;;17.13;4.32;;;5.30;99.90;;;;;;5070968;28;20048;-71
2022/03/19 06:57:56;;;;;;;19.85;4.55;;;5.40;99.90;;;;;;5074126;28;20040;-70
2022/03/19 07:00:22;;;;;;;16.60;4.60;;;5.50;99.90;;;;;;5073875;28;20055;-70
2022/03/19 07:02:50;;;;;;;16.30;4.00;;;5.50;99.90;;;;;;5073183;28;20508;-70
2022/03/19 07:05:19;;;;;;;18.70;4.63;;;5.60;99.90;;;;;;5073406;28;20123;-71
2022/03/19 07:07:45;;;;;;;14.80;4.50;;;5.70;99.90;;;;;;5073806;28;20041;-71
2022/03/19 07:10:11;;;;;;;16.10;5.05;;;5.70;99.90;;;;;;5073230;28;20067;-71
2022/03/19 07:12:46;;;;;;;12.93;5.38;;;5.80;99.90;;;;;;5072903;28;20492;-70
2022/03/19 07:15:13;;;;;;;15.07;5.05;;;5.80;99.90;;;;;;5070012;28;20491;-71
2022/03/19 07:17:39;;;;;;;10.75;4.32;;;5.90;99.90;;;;;;5061882;28;20086;-71
2022/03/19 07:20:06;;;;;;;16.13;4.50;;;6.00;99.90;;;;;;5053505;28;20508;-71
2022/03/19 07:23:01;;;;;;;12.50;4.95;;;6.20;99.90;;;;;;5051606;28;20044;-71
2022/03/19 07:25:39;;;;;;;16.10;4.90;;;6.30;99.90;;;;;;5051754;28;20060;-71
2022/03/19 07:28:07;;;;;;;9.23;4.35;;;6.40;99.90;;;;;;5051774;28;20681;-72
2022/03/19 07:30:33;;;;;;;14.65;5.40;;;6.50;99.90;;;;;;5035137;28;20509;-71
2022/03/19 07:33:00;;;;;;;13.75;4.57;;;6.50;99.90;;;;;;5052352;28;20124;-71
2022/03/19 07:35:26;;;;;;;16.13;5.20;;;6.60;99.90;;;;;;5053240;28;20064;-71
2022/03/19 07:37:51;;;;;;;17.27;4.93;;;6.60;99.90;;;;;;5058567;28;20041;-71
2022/03/19 07:43:04;;;;;;;15.38;4.72;;;6.70;99.90;;;;;;5065361;28;20129;-71
2022/03/19 07:45:30;;;;;;;17.52;5.03;;;6.70;99.90;;;;;;5053243;28;20072;-71
2022/03/19 07:47:56;;;;;;;12.52;4.07;;;6.70;99.90;;;;;;5053321;28;20053;-71
2022/03/19 07:50:22;;;;;;;17.95;4.63;;;6.80;99.90;;;;;;5057710;28;20045;-70
2022/03/19 07:52:47;;;;;;;14.15;5.13;;;6.90;99.90;;;;;;5072040;28;20056;-70
2022/03/19 07:55:13;;;;;;;17.98;4.88;;;7.00;99.90;;;;;;5061415;28;20506;-71
2022/03/19 07:57:39;;;;;;;16.48;4.50;;;7.00;99.90;;;;;;5054485;28;20060;-71
2022/03/19 08:00:05;;;;;;;21.52;5.18;;;7.10;99.90;;;;;;5052570;28;20075;-71
2022/03/19 08:02:31;;;;;;;12.13;3.92;;;7.10;99.90;;;;;;5051893;28;20053;-71
2022/03/19 08:04:58;;;;;;;12.75;4.20;;;7.10;99.90;;;;;;5052606;28;20037;-71
2022/03/19 08:07:24;;;;;;;13.90;3.92;;;7.20;99.90;;;;;;5052407;28;20048;-71
2022/03/19 08:09:49;;;;;;;20.83;4.00;;;7.30;99.90;;;;;;5052397;28;20055;-71
2022/03/19 08:12:15;;;;;;;12.93;4.15;;;7.30;99.90;;;;;;5051964;28;20367;-71
2022/03/19 08:14:41;;;;;;;15.90;4.10;;;7.30;99.90;;;;;;5051426;28;20132;-71
2022/03/19 08:17:06;;;;;;;12.95;3.65;;;7.40;99.90;;;;;;5052349;28;20041;-71
2022/03/19 08:19:32;;;;;;;21.58;4.90;;;7.40;99.90;;;;;;5052322;28;20037;-70
2022/03/19 08:21:58;;;;;;;15.48;4.18;;;7.50;99.90;;;;;;5050573;28;20083;-70
2022/03/19 08:24:25;;;;;;;19.58;4.07;;;7.50;99.90;;;;;;5052297;28;20049;-70
2022/03/19 08:26:53;;;;;;;20.13;4.88;;;7.60;99.90;;;;;;5050976;28;20056;-71
2022/03/19 08:29:23;;;;;;;13.15;4.18;;;7.70;99.90;;;;;;5052458;28;20549;-74
2022/03/19 08:31:50;;;;;;;10.65;3.78;;;7.80;99.90;;;;;;5050249;28;20124;-75
2022/03/19 08:34:16;;;;;;;13.27;4.30;;;7.80;99.90;;;;;;5051130;28;20052;-75
2022/03/19 08:36:42;;;;;;;17.45;5.05;;;7.80;99.90;;;;;;5050822;28;20610;-75
2022/03/19 08:41:52;;;;;;;9.35;3.85;;;7.90;99.90;;;;;;5050105;28;20080;-75
2022/03/19 08:44:17;;;;;;;16.33;3.97;;;7.90;99.90;;;;;;5050531;28;20426;-75
2022/03/19 08:46:43;;;;;;;19.83;4.05;;;8.00;99.90;;;;;;5051272;28;20041;-75
2022/03/19 08:49:09;;;;;;;12.23;4.70;;;8.10;99.90;;;;;;5051214;28;20398;-75
2022/03/19 08:51:40;;;;;;;18.80;4.95;;;8.10;99.90;;;;;;5049682;28;20409;-75
2022/03/19 08:54:14;;;;;;;17.48;4.43;;;8.10;99.90;;;;;;5049997;28;20037;-75
2022/03/19 08:56:40;;;;;;;16.88;3.97;;;8.20;99.90;;;;;;5051857;28;20115;-75
2022/03/19 08:59:06;;;;;;;9.38;3.65;;;8.40;99.90;;;;;;5060600;28;20037;-76
2022/03/19 09:01:33;;;;;;;23.13;3.35;;;8.40;99.90;;;;;;5075696;28;20255;-75
2022/03/19 09:03:59;;;;;;;21.90;3.78;;;8.40;99.90;;;;;;5072588;28;20071;-75
2022/03/19 09:06:24;;;;;;;12.15;3.03;;;8.60;99.90;;;;;;5070609;28;20052;-75
2022/03/19 09:08:50;;;;;;;13.52;3.50;;;8.60;99.90;;;;;;5063071;28;20041;-75
2022/03/19 09:11:18;;;;;;;12.70;3.42;;;8.60;99.90;;;;;;5050722;28;20041;-75
2022/03/19 09:13:48;;;;;;;14.60;2.88;;;8.70;99.90;;;;;;5050004;28;20154;-75
2022/03/19 09:16:14;;;;;;;14.52;3.55;;;8.80;99.90;;;;;;5050156;28;20049;-70
2022/03/19 09:18:39;;;;;;;11.07;3.40;;;8.90;99.90;;;;;;5050484;28;20037;-69
2022/03/19 09:21:05;;;;;;;14.20;3.40;;;8.90;99.90;;;;;;5051271;28;20036;-69
2022/03/19 09:23:31;;;;;;;12.88;3.10;;;9.00;99.90;;;;;;5050756;28;20032;-70
2022/03/19 09:25:56;;;;;;;10.63;3.25;;;9.00;99.70;;;;;;5050882;28;20489;-71
2022/03/19 09:28:22;;;;;;;13.13;2.85;;;9.00;97.50;;;;;;5051279;28;20032;-75
2022/03/19 09:30:48;;;;;;;9.98;2.90;;;9.00;98.30;;;;;;5049792;28;20037;-75
2022/03/19 09:33:14;;;;;;;15.07;2.92;;;9.10;99.90;;;;;;5049045;28;20410;-75
2022/03/19 09:35:40;;;;;;;14.48;2.50;;;9.10;99.90;;;;;;5033250;28;20128;-74
2022/03/19 09:38:06;;;;;;;7.10;2.78;;;9.60;99.90;;;;;;5050926;28;20123;-71
2022/03/19 09:40:32;;;;;;;8.93;2.75;;;9.30;99.90;;;;;;5050737;28;20470;-71
2022/03/19 09:42:59;;;;;;;10.85;2.40;;;9.20;92.40;;;;;;5050188;28;20087;-71
2022/03/19 09:45:26;;;;;;;12.27;3.22;;;9.40;95.30;;;;;;5050434;28;20059;-71
2022/03/19 09:47:55;;;;;;;10.10;2.90;;;9.40;96.20;;;;;;5049282;28;20037;-71
2022/03/19 09:50:22;;;;;;;7.85;2.47;;;9.50;90.30;;;;;;5049311;28;20516;-71
2022/03/19 09:52:52;;;;;;;11.20;2.90;;;9.60;98.30;;;;;;5050037;28;20094;-71
2022/03/19 09:55:20;;;;;;;10.82;2.75;;;9.70;91.50;;;;;;5050846;28;20066;-72
2022/03/19 09:57:46;;;;;;;8.57;2.95;;;9.70;90.90;;;;;;5050625;28;20059;-71
2022/03/19 10:00:13;;;;;;;8.93;2.60;;;9.80;88.30;;;;;;5050356;28;20381;-71
2022/03/19 10:02:57;;;;;;;8.88;2.97;;;9.80;92.90;;;;;;5049625;28;20044;-72
2022/03/19 10:10:56;;;;;;;11.70;3.17;;;9.90;99.90;;;;;;5049266;28;20051;-71
2022/03/19 10:13:23;;;;;;;15.77;3.17;;;10.00;99.90;;;;;;5047353;28;20097;-71
2022/03/19 10:15:48;;;;;;;18.30;2.97;;;10.00;97.90;;;;;;5063441;28;20108;-71
2022/03/19 10:18:14;;;;;;;11.82;3.53;;;9.90;95.00;;;;;;5049916;28;20080;-71
2022/03/19 10:20:39;;;;;;;16.15;2.88;;;10.00;99.90;;;;;;5065824;28;20091;-70
2022/03/19 10:23:05;;;;;;;13.57;3.05;;;10.20;99.90;;;;;;5074561;28;20045;-71
2022/03/19 10:25:31;;;;;;;10.93;2.90;;;10.10;92.60;;;;;;5054158;28;20040;-72
2022/03/19 10:28:01;;;;;;;9.77;2.75;;;10.20;97.20;;;;;;5050555;28;20037;-71
2022/03/19 10:30:38;;;;;;;7.53;2.53;;;10.20;94.90;;;;;;5050886;28;20041;-72
2022/03/19 10:33:06;;;;;;;5.78;2.88;;;10.20;85.60;;;;;;5053534;28;20185;-74
2022/03/19 10:35:41;;;;;;;11.07;2.78;;;10.20;87.70;;;;;;5052529;28;20048;-72
2022/03/19 10:38:22;;;;;;;6.45;2.53;;;10.30;77.10;;;;;;5054394;28;20132;-77
2022/03/19 10:40:51;;;;;;;10.90;2.45;;;10.40;89.00;;;;;;5052827;28;20082;-77
2022/03/19 10:43:18;;;;;;;7.85;2.58;;;10.60;86.40;;;;;;5053841;28;20045;-77
2022/03/19 10:45:46;;;;;;;9.32;2.25;;;10.50;69.60;;;;;;5053134;28;20080;-77
2022/03/19 10:48:13;;;;;;;11.68;2.72;;;10.50;78.40;;;;;;5052773;28;20041;-77
2022/03/19 10:50:40;;;;;;;9.20;2.55;;;10.60;88.20;;;;;;5054657;28;20044;-77
2022/03/19 10:53:06;;;;;;;6.63;2.08;;;10.60;79.40;;;;;;5053715;28;20086;-77
2022/03/19 10:55:32;;;;;;;4.93;1.90;;;10.70;68.30;;;;;;5036023;28;20041;-77
2022/03/19 10:57:58;;;;;;;11.55;2.58;;;10.60;58.00;;;;;;5054081;28;20051;-77
2022/03/19 11:00:23;;;;;;;7.93;2.53;;;10.70;68.30;;;;;;5053909;28;20036;-77
2022/03/19 11:02:54;;;;;;;6.07;2.33;;;10.70;64.60;;;;;;5053388;28;20140;-77
2022/03/19 11:05:21;;;;;;;6.50;2.40;;;10.80;59.30;;;;;;5052916;28;20489;-77
2022/03/19 11:07:47;;;;;;;9.50;2.58;;;10.90;56.00;;;;;;5052699;28;20052;-77
2022/03/19 11:10:14;;;;;;;8.15;2.45;;;11.10;56.70;;;;;;5052920;28;20033;-77
2022/03/19 11:12:43;;;;;;;7.55;1.88;;;11.00;65.20;;;;;;5038314;28;20045;-77
2022/03/19 11:15:13;;;;;;;9.90;2.35;;;11.00;58.80;;;;;;5053965;28;20037;-77
2022/03/19 11:17:40;;;;;;;5.55;2.00;;;11.00;63.10;;;;;;5052560;28;20493;-77
2022/03/19 11:20:09;;;;;;;5.80;2.08;;;11.10;61.50;;;;;;5053751;28;20041;-78
2022/03/19 11:22:46;;;;;;;8.18;3.00;;;11.00;65.00;;;;;;5063250;28;20037;-77
2022/03/19 11:25:19;;;;;;;5.90;2.60;;;11.00;62.90;;;;;;5068377;28;20507;-78
2022/03/19 11:27:48;;;;;;;7.38;2.53;;;11.20;72.40;;;;;;5054174;28;20486;-77
2022/03/19 11:30:32;;;;;;;6.45;2.75;;;11.20;65.40;;;;;;5053309;28;20478;-77
2022/03/19 11:33:05;;;;;;;7.25;2.15;;;11.10;58.60;;;;;;5034690;28;20095;-78
2022/03/19 11:35:32;;;;;;;7.35;2.13;;;11.20;57.90;;;;;;5053360;28;20508;-77
2022/03/19 11:38:04;;;;;;;6.32;2.00;;;11.20;59.90;;;;;;5067273;28;20040;-78
2022/03/19 11:40:36;;;;;;;5.82;2.10;;;11.20;55.80;;;;;;5079526;28;20025;-78
2022/03/19 11:43:07;;;;;;;8.23;1.98;;;11.40;60.90;;;;;;5073211;28;20036;-78
2022/03/19 11:45:57;;;;;;;6.20;2.20;;;11.30;59.50;;;;;;5063372;28;20104;-77
2022/03/19 11:48:35;;;;;;;4.63;1.83;;;11.40;59.60;;;;;;5051674;28;20417;-77
2022/03/19 11:51:34;;;;;;;4.20;2.13;;;11.30;55.10;;;;;;5051587;28;20143;-77
2022/03/19 11:54:09;;;;;;;7.68;2.10;;;11.40;56.10;;;;;;5051328;28;20044;-77
2022/03/19 11:56:41;;;;;;;4.97;2.45;;;11.40;59.60;;;;;;5051419;28;20040;-76
2022/03/19 11:59:15;;;;;;;7.43;2.70;;;11.60;60.20;;;;;;5052607;28;20048;-77
2022/03/19 12:01:57;;;;;;;5.47;2.00;;;11.50;56.40;;;;;;5050887;28;20442;-77
2022/03/19 12:04:24;;;;;;;6.13;1.88;;;11.60;57.10;;;;;;5050955;28;20040;-77
2022/03/19 12:06:51;;;;;;;7.10;2.15;;;11.60;55.30;;;;;;5034622;28;20489;-77
2022/03/19 12:09:16;;;;;;;6.40;2.30;;;11.60;55.10;;;;;;5052325;28;20068;-75
2022/03/19 12:12:11;;;;;;;8.93;2.33;;;11.60;55.90;;;;;;5033820;28;20041;-76
2022/03/19 12:14:37;;;;;;;7.82;2.88;;;11.60;57.20;;;;;;5034444;28;20502;-75
2022/03/19 12:17:27;;;;;;;3.40;2.17;;;11.60;56.10;;;;;;5050876;28;20120;-76
2022/03/19 12:20:03;;;;;;;7.70;2.22;;;11.60;57.50;;;;;;5034372;28;20132;-75
2022/03/19 12:22:37;;;;;;;5.22;2.13;;;11.60;54.60;;;;;;5033689;28;20052;-75
2022/03/19 12:25:16;;;;;;;6.43;2.42;;;11.60;56.40;;;;;;5064415;28;20063;-76
2022/03/19 12:27:42;;;;;;;5.97;2.45;;;11.70;55.60;;;;;;5072491;28;20076;-76
2022/03/19 12:30:09;;;;;;;4.57;2.13;;;11.70;56.10;;;;;;5054630;28;20072;-75
2022/03/19 12:32:48;;;;;;;3.58;1.90;;;11.70;55.50;;;;;;5086480;28;20024;-70
2022/03/19 12:35:13;;;;;;;8.32;2.20;;;11.80;53.30;;;;;;5088438;28;20093;-71
2022/03/19 12:37:50;;;;;;;6.35;2.15;;;11.80;55.90;;;;;;5071448;28;20048;-71
2022/03/19 12:40:23;;;;;;;6.88;2.15;;;11.90;60.50;;;;;;5070567;28;20083;-71
2022/03/19 12:42:57;;;;;;;4.63;2.30;;;11.80;55.50;;;;;;5071750;28;20051;-71
2022/03/19 12:45:42;;;;;;;8.38;2.58;;;11.90;54.50;;;;;;5072228;28;20036;-71
2022/03/19 12:48:10;;;;;;;3.38;1.83;;;11.90;55.60;;;;;;5070336;28;20097;-72
2022/03/19 12:50:36;;;;;;;9.48;2.53;;;11.80;56.00;;;;;;5071922;28;20036;-71
2022/03/19 12:53:01;;;;;;;4.85;2.40;;;11.90;57.10;;;;;;5069083;28;20509;-71
2022/03/19 12:55:27;;;;;;;7.75;2.60;;;11.80;56.40;;;;;;5070638;28;20044;-71
2022/03/19 12:58:03;;;;;;;7.40;2.10;;;11.90;58.20;;;;;;5071258;28;20040;-71
2022/03/19 13:00:29;;;;;;;5.60;2.35;;;12.00;56.70;;;;;;5087869;28;20020;-72
2022/03/19 13:02:55;;;;;;;5.47;2.28;;;11.90;56.10;;;;;;5096427;28;20040;-71
2022/03/19 13:05:21;;;;;;;7.35;2.17;;;12.00;55.90;;;;;;5077888;28;20083;-72
2022/03/19 13:08:07;;;;;;;7.75;2.17;;;12.00;56.80;;;;;;5071663;28;20044;-72
2022/03/19 13:10:50;;;;;;;6.97;2.25;;;12.00;55.70;;;;;;5072038;28;20439;-72
2022/03/19 13:13:18;;;;;;;5.10;2.25;;;12.10;54.90;;;;;;5071110;28;20040;-72
2022/03/19 13:15:51;;;;;;;8.30;2.10;;;12.20;54.90;;;;;;5070031;28;20040;-72